Time;durP1;ratioP1;P1;durP2;ratioP2;P2;SDS_P1;SDS_P2;PMS_P1;PMS_P2;Temp;Humidity;BMP_temperature;BMP_pressure;BME280_temperature;BME280_humidity;BME280_pressure;Samples;Min_cycle;Max_cycle;Signal;HPM_P1;HPM_P2
2022/11/22 00:01:03;;;;;;;;;;;;;;;5.23;100;99111.71;;;;-78
2022/11/22 00:06:03;;;;;;;;;;;;;;;5.26;100;99120.98;;;;-77
2022/11/22 00:10:58;;;;;;;;;;;;;;;5.29;100;99108.52;;;;-78
2022/11/22 00:20:51;;;;;;;;;;;;;;;5.34;100;99122.33;;;;-78
2022/11/22 00:25:51;;;;;;;;;;;;;;;5.35;100;99115.06;;;;-78
2022/11/22 00:30:50;;;;;;;;;;;;;;;5.34;100;99093.95;;;;-78
2022/11/22 00:35:51;;;;;;;;;;;;;;;5.35;100;99089.8;;;;-79
2022/11/22 00:37:01;;;;;;;12.4;4;;;;;;;;;;;;;-78
2022/11/22 00:40:50;;;;;;;;;;;;;;;5.37;100;99087.23;;;;-79
2022/11/22 00:45:52;;;;;;;;;;;;;;;5.37;100;99087.42;;;;-77
2022/11/22 00:50:51;;;;;;;;;;;;;;;5.39;100;99090.23;;;;-77
2022/11/22 00:55:51;;;;;;;;;;;;;;;5.37;100;99098.39;;;;-78
2022/11/22 01:00:52;;;;;;;;;;;;;;;5.36;100;99100.63;;;;-77
2022/11/22 01:05:50;;;;;;;;;;;;;;;5.36;100;99102.91;;;;-76
2022/11/22 01:07:01;;;;;;;10.4;4.5;;;;;;;;;;;;;-77
2022/11/22 01:10:50;;;;;;;;;;;;;;;5.36;100;99106.02;;;;-77
2022/11/22 01:15:50;;;;;;;;;;;;;;;5.34;100;99105.08;;;;-77
2022/11/22 01:20:50;;;;;;;;;;;;;;;5.31;100;99109.31;;;;-78
2022/11/22 01:25:50;;;;;;;;;;;;;;;5.32;100;99108.43;;;;-78
2022/11/22 01:30:57;;;;;;;;;;;;;;;5.34;100;99105.15;;;;-78
2022/11/22 01:35:51;;;;;;;;;;;;;;;5.32;100;99100.02;;;;-78
2022/11/22 01:37:11;;;;;;;14.5;4.9;;;;;;;;;;;;;-77
2022/11/22 01:40:50;;;;;;;;;;;;;;;5.28;100;99092.48;;;;-76
2022/11/22 01:45:55;;;;;;;;;;;;;;;5.26;100;99105.19;;;;-77
2022/11/22 01:50:52;;;;;;;;;;;;;;;5.25;100;99095.83;;;;-77
2022/11/22 01:55:52;;;;;;;;;;;;;;;5.24;100;99084.52;;;;-76
2022/11/22 02:00:51;;;;;;;;;;;;;;;5.27;100;99090.81;;;;-77
2022/11/22 02:05:51;;;;;;;;;;;;;;;5.26;100;99091.84;;;;-75
2022/11/22 02:07:04;;;;;;;12.5;4.3;;;;;;;;;;;;;-77
2022/11/22 02:10:52;;;;;;;;;;;;;;;5.25;100;99110.55;;;;-77
2022/11/22 02:15:50;;;;;;;;;;;;;;;5.24;100;99106.89;;;;-77
2022/11/22 02:20:50;;;;;;;;;;;;;;;5.2;100;99107.56;;;;-77
2022/11/22 02:25:57;;;;;;;;;;;;;;;5.14;100;99102.95;;;;-76
2022/11/22 02:30:50;;;;;;;;;;;;;;;5.08;100;99107.91;;;;-76
2022/11/22 02:35:50;;;;;;;;;;;;;;;5.04;100;99122.13;;;;-76
2022/11/22 02:37:01;;;;;;;10.4;3.6;;;;;;;;;;;;;-76
2022/11/22 02:40:53;;;;;;;;;;;;;;;4.99;100;99121.19;;;;-77
2022/11/22 02:45:50;;;;;;;;;;;;;;;4.93;100;99121.31;;;;-77
2022/11/22 02:50:50;;;;;;;;;;;;;;;4.88;100;99118.22;;;;-76
2022/11/22 02:55:50;;;;;;;;;;;;;;;4.84;100;99120.38;;;;-76
2022/11/22 03:00:50;;;;;;;;;;;;;;;4.8;100;99115.84;;;;-77
2022/11/22 03:05:50;;;;;;;;;;;;;;;4.75;100;99121.25;;;;-76
2022/11/22 03:07:03;;;;;;;8.8;3;;;;;;;;;;;;;-76
2022/11/22 03:10:50;;;;;;;;;;;;;;;4.71;100;99122.14;;;;-76
2022/11/22 03:15:50;;;;;;;;;;;;;;;4.67;100;99126.66;;;;-77
2022/11/22 03:20:50;;;;;;;;;;;;;;;4.64;100;99134.68;;;;-76
2022/11/22 03:25:50;;;;;;;;;;;;;;;4.6;100;99137.56;;;;-77
2022/11/22 03:30:50;;;;;;;;;;;;;;;4.55;100;99140.12;;;;-76
2022/11/22 03:35:50;;;;;;;;;;;;;;;4.55;100;99148.88;;;;-76
2022/11/22 03:37:01;;;;;;;8;2.2;;;;;;;;;;;;;-76
2022/11/22 03:40:52;;;;;;;;;;;;;;;4.54;100;99155.13;;;;-76
2022/11/22 03:45:51;;;;;;;;;;;;;;;4.48;100;99153.03;;;;-76
2022/11/22 03:50:50;;;;;;;;;;;;;;;4.49;100;99149.5;;;;-76
2022/11/22 03:55:50;;;;;;;;;;;;;;;4.45;100;99159.31;;;;-75
2022/11/22 04:00:50;;;;;;;;;;;;;;;4.43;100;99155.36;;;;-77
2022/11/22 04:05:51;;;;;;;;;;;;;;;4.37;100;99160.45;;;;-77
2022/11/22 04:07:01;;;;;;;8.3;2;;;;;;;;;;;;;-77
2022/11/22 04:10:50;;;;;;;;;;;;;;;4.37;100;99169.61;;;;-77
2022/11/22 04:15:50;;;;;;;;;;;;;;;4.28;100;99181.14;;;;-76
2022/11/22 04:25:51;;;;;;;;;;;;;;;4.21;100;99175.28;;;;-76
2022/11/22 04:35:50;;;;;;;;;;;;;;;4.09;100;99189.55;;;;-78
2022/11/22 04:37:01;;;;;;;8.4;1.7;;;;;;;;;;;;;-75
2022/11/22 04:40:50;;;;;;;;;;;;;;;4.09;100;99182.33;;;;-75
2022/11/22 04:45:50;;;;;;;;;;;;;;;4.05;100;99187.48;;;;-76
2022/11/22 04:55:50;;;;;;;;;;;;;;;3.96;100;99184;;;;-75
2022/11/22 05:00:50;;;;;;;;;;;;;;;3.98;100;99178.69;;;;-76
2022/11/22 05:05:50;;;;;;;;;;;;;;;3.91;100;99181.94;;;;-76
2022/11/22 05:07:01;;;;;;;9.5;1.6;;;;;;;;;;;;;-75
2022/11/22 05:11:02;;;;;;;;;;;;;;;3.84;100;99176.53;;;;-75
2022/11/22 05:15:50;;;;;;;;;;;;;;;3.83;100;99190.63;;;;-77
2022/11/22 05:20:50;;;;;;;;;;;;;;;3.78;100;99189.97;;;;-77
2022/11/22 05:25:50;;;;;;;;;;;;;;;3.75;100;99195.84;;;;-78
2022/11/22 05:30:50;;;;;;;;;;;;;;;3.7;100;99188.05;;;;-77
2022/11/22 05:35:50;;;;;;;;;;;;;;;3.69;100;99195.59;;;;-76
2022/11/22 05:37:01;;;;;;;3.8;1.3;;;;;;;;;;;;;-77
2022/11/22 05:40:50;;;;;;;;;;;;;;;3.67;100;99200.38;;;;-76
2022/11/22 05:45:50;;;;;;;;;;;;;;;3.67;100;99203.71;;;;-77
2022/11/22 05:50:50;;;;;;;;;;;;;;;3.67;100;99197.41;;;;-77
2022/11/22 05:55:50;;;;;;;;;;;;;;;3.68;100;99204.86;;;;-77
2022/11/22 06:00:50;;;;;;;;;;;;;;;3.66;100;99195.91;;;;-78
2022/11/22 06:05:53;;;;;;;;;;;;;;;3.67;100;99186.64;;;;-77
2022/11/22 06:07:00;;;;;;;5.1;1.6;;;;;;;;;;;;;-77
2022/11/22 06:10:50;;;;;;;;;;;;;;;3.67;100;99189.45;;;;-77
2022/11/22 06:15:50;;;;;;;;;;;;;;;3.65;100;99197.83;;;;-77
2022/11/22 06:20:50;;;;;;;;;;;;;;;3.64;100;99201.16;;;;-76
2022/11/22 06:25:50;;;;;;;;;;;;;;;3.63;100;99194.39;;;;-76
2022/11/22 06:30:50;;;;;;;;;;;;;;;3.61;100;99191.52;;;;-77
2022/11/22 06:35:50;;;;;;;;;;;;;;;3.58;100;99180.38;;;;-78
2022/11/22 06:37:01;;;;;;;4.4;1.9;;;;;;;;;;;;;-77
2022/11/22 06:40:50;;;;;;;;;;;;;;;3.54;100;99171.36;;;;-78
2022/11/22 06:45:50;;;;;;;;;;;;;;;3.5;100;99174.05;;;;-77
2022/11/22 06:50:50;;;;;;;;;;;;;;;3.46;100;99185.92;;;;-78
2022/11/22 06:55:50;;;;;;;;;;;;;;;3.41;100;99181.98;;;;-77
2022/11/22 07:00:50;;;;;;;;;;;;;;;3.37;100;99185.84;;;;-76
2022/11/22 07:05:56;;;;;;;;;;;;;;;3.36;100;99189.92;;;;-76
2022/11/22 07:07:00;;;;;;;7.1;2.5;;;;;;;;;;;;;-76
2022/11/22 07:10:50;;;;;;;;;;;;;;;3.37;100;99197.55;;;;-77
2022/11/22 07:15:56;;;;;;;;;;;;;;;3.46;100;99200.08;;;;-76
2022/11/22 07:20:50;;;;;;;;;;;;;;;3.48;100;99196.37;;;;-77
2022/11/22 07:25:51;;;;;;;;;;;;;;;3.56;100;99203.25;;;;-77
2022/11/22 07:30:50;;;;;;;;;;;;;;;3.65;100;99216.8;;;;-76
2022/11/22 07:35:50;;;;;;;;;;;;;;;3.73;100;99221.23;;;;-76
2022/11/22 07:36:59;;;;;;;7.3;3.1;;;;;;;;;;;;;-77
2022/11/22 07:40:50;;;;;;;;;;;;;;;3.71;100;99224.55;;;;-77
2022/11/22 07:45:50;;;;;;;;;;;;;;;3.79;100;99234.5;;;;-78
2022/11/22 07:50:50;;;;;;;;;;;;;;;3.86;100;99239.33;;;;-77
2022/11/22 07:55:50;;;;;;;;;;;;;;;3.86;100;99243.41;;;;-77
2022/11/22 08:00:50;;;;;;;;;;;;;;;3.92;100;99246.23;;;;-76
2022/11/22 08:06:01;;;;;;;;;;;;;;;3.95;100;99247.61;;;;-78
2022/11/22 08:07:00;;;;;;;7;2.9;;;;;;;;;;;;;-77
2022/11/22 08:10:50;;;;;;;;;;;;;;;4.01;100;99251.28;;;;-76
2022/11/22 08:15:50;;;;;;;;;;;;;;;4.02;100;99260.8;;;;-77
2022/11/22 08:20:50;;;;;;;;;;;;;;;4.03;100;99264.03;;;;-76
2022/11/22 08:25:50;;;;;;;;;;;;;;;4.07;100;99260.88;;;;-76
2022/11/22 08:30:50;;;;;;;;;;;;;;;4.06;100;99263.19;;;;-77
2022/11/22 08:35:52;;;;;;;;;;;;;;;4.09;100;99268.09;;;;-77
2022/11/22 08:36:59;;;;;;;9.1;3.3;;;;;;;;;;;;;-77
2022/11/22 08:40:50;;;;;;;;;;;;;;;4.11;100;99280.48;;;;-77
2022/11/22 08:45:50;;;;;;;;;;;;;;;4.16;100;99278.92;;;;-77
2022/11/22 08:50:52;;;;;;;;;;;;;;;4.18;100;99287.72;;;;-77
2022/11/22 08:55:50;;;;;;;;;;;;;;;4.21;100;99290.34;;;;-76
2022/11/22 09:00:50;;;;;;;;;;;;;;;4.26;100;99290.84;;;;-77
2022/11/22 09:05:50;;;;;;;;;;;;;;;4.28;100;99295.91;;;;-75
2022/11/22 09:06:59;;;;;;;11.4;3.2;;;;;;;;;;;;;-77
2022/11/22 09:10:50;;;;;;;;;;;;;;;4.3;100;99305.78;;;;-77
2022/11/22 09:15:50;;;;;;;;;;;;;;;4.36;100;99302.36;;;;-75
2022/11/22 09:20:50;;;;;;;;;;;;;;;4.38;100;99299.59;;;;-76
2022/11/22 09:25:50;;;;;;;;;;;;;;;4.43;100;99308.45;;;;-76
2022/11/22 09:30:50;;;;;;;;;;;;;;;4.49;100;99307.98;;;;-76
2022/11/22 09:35:51;;;;;;;;;;;;;;;4.53;100;99312.73;;;;-77
2022/11/22 09:36:57;;;;;;;7.5;2.8;;;;;;;;;;;;;-76
2022/11/22 09:40:52;;;;;;;;;;;;;;;4.56;100;99313.45;;;;-76
2022/11/22 09:45:57;;;;;;;;;;;;;;;4.59;100;99315.77;;;;-76
2022/11/22 09:50:55;;;;;;;;;;;;;;;4.62;100;99325;;;;-76
2022/11/22 09:55:52;;;;;;;;;;;;;;;4.64;100;99326.31;;;;-75
2022/11/22 10:00:50;;;;;;;;;;;;;;;4.66;100;99321.73;;;;-75
2022/11/22 10:05:52;;;;;;;;;;;;;;;4.7;100;99325.11;;;;-75
2022/11/22 10:06:59;;;;;;;7.3;2.7;;;;;;;;;;;;;-76
2022/11/22 10:10:54;;;;;;;;;;;;;;;4.72;100;99325.38;;;;-75
2022/11/22 10:15:52;;;;;;;;;;;;;;;4.75;100;99318.93;;;;-76
2022/11/22 10:20:50;;;;;;;;;;;;;;;4.79;100;99322.44;;;;-76
2022/11/22 10:25:54;;;;;;;;;;;;;;;4.82;100;99320.08;;;;-75
2022/11/22 10:30:55;;;;;;;;;;;;;;;4.84;100;99321.48;;;;-76
2022/11/22 10:35:58;;;;;;;;;;;;;;;4.86;100;99309.81;;;;-76
2022/11/22 10:36:59;;;;;;;11.5;2.9;;;;;;;;;;;;;-77
2022/11/22 10:40:49;;;;;;;;;;;;;;;4.9;100;99321.55;;;;-75
2022/11/22 10:45:52;;;;;;;;;;;;;;;4.94;100;99315.61;;;;-76
2022/11/22 10:50:56;;;;;;;;;;;;;;;4.97;100;99314.92;;;;-74
2022/11/22 10:55:56;;;;;;;;;;;;;;;5.01;100;99303.89;;;;-76
2022/11/22 11:00:53;;;;;;;;;;;;;;;5.06;100;99295.81;;;;-76
2022/11/22 11:05:53;;;;;;;;;;;;;;;5.11;100;99306.73;;;;-76
2022/11/22 11:06:59;;;;;;;7.7;2.4;;;;;;;;;;;;;-76
2022/11/22 11:10:50;;;;;;;;;;;;;;;5.13;100;99300.72;;;;-75
2022/11/22 11:15:51;;;;;;;;;;;;;;;5.16;99.88965;99301.69;;;;-75
2022/11/22 11:20:52;;;;;;;;;;;;;;;5.21;99.83301;99299.2;;;;-75
2022/11/22 11:25:51;;;;;;;;;;;;;;;5.24;99.61328;99288.5;;;;-74
2022/11/22 11:30:50;;;;;;;;;;;;;;;5.3;99.4209;99292.64;;;;-76
2022/11/22 11:35:50;;;;;;;;;;;;;;;5.34;99.20313;99276.02;;;;-75
2022/11/22 11:36:57;;;;;;;6.8;2.4;;;;;;;;;;;;;-76
2022/11/22 11:40:50;;;;;;;;;;;;;;;5.39;99.08105;99272.2;;;;-76
2022/11/22 11:45:50;;;;;;;;;;;;;;;5.43;98.92871;99269.77;;;;-76
2022/11/22 11:50:50;;;;;;;;;;;;;;;5.45;98.8457;99276.25;;;;-76
2022/11/22 11:55:51;;;;;;;;;;;;;;;5.47;98.39355;99277.69;;;;-76
2022/11/22 12:00:50;;;;;;;;;;;;;;;5.51;98.45801;99275.58;;;;-76
2022/11/22 12:05:50;;;;;;;;;;;;;;;5.52;98.17676;99289.78;;;;-75
2022/11/22 12:07:07;;;;;;;7.4;2;;;;;;;;;;;;;-76
2022/11/22 12:10:51;;;;;;;;;;;;;;;5.54;98.19434;99287.72;;;;-76
2022/11/22 12:15:54;;;;;;;;;;;;;;;5.59;97.85449;99281.55;;;;-76
2022/11/22 12:20:54;;;;;;;;;;;;;;;5.62;97.88477;99268.14;;;;-76
2022/11/22 12:25:52;;;;;;;;;;;;;;;5.66;97.69629;99263.52;;;;-76
2022/11/22 12:30:53;;;;;;;;;;;;;;;5.67;97.53711;99264.55;;;;-76
2022/11/22 12:35:50;;;;;;;;;;;;;;;5.7;97.5;99272.2;;;;-76
2022/11/22 12:37:01;;;;;;;6.4;2.1;;;;;;;;;;;;;-76
2022/11/22 12:40:51;;;;;;;;;;;;;;;5.73;97.37598;99267.48;;;;-76
2022/11/22 12:45:51;;;;;;;;;;;;;;;5.75;97.43652;99263.48;;;;-76
2022/11/22 12:50:51;;;;;;;;;;;;;;;5.78;97.33301;99267.33;;;;-75
2022/11/22 12:55:53;;;;;;;;;;;;;;;5.82;97.3418;99271.15;;;;-75
2022/11/22 13:00:55;;;;;;;;;;;;;;;5.82;97.32031;99273.8;;;;-75
2022/11/22 13:05:54;;;;;;;;;;;;;;;5.83;97.21289;99266.72;;;;-76
2022/11/22 13:06:59;;;;;;;5.1;2;;;;;;;;;;;;;-76
2022/11/22 13:10:54;;;;;;;;;;;;;;;5.84;97.37793;99273.92;;;;-75
2022/11/22 13:15:50;;;;;;;;;;;;;;;5.85;97.2168;99274.77;;;;-76
2022/11/22 13:20:56;;;;;;;;;;;;;;;5.87;97.00586;99267.63;;;;-75
2022/11/22 13:25:56;;;;;;;;;;;;;;;5.87;96.8418;99269.26;;;;-75
2022/11/22 13:31:01;;;;;;;;;;;;;;;5.89;96.99023;99271.08;;;;-76
2022/11/22 13:35:50;;;;;;;;;;;;;;;5.91;97.01367;99259.88;;;;-74
2022/11/22 13:36:56;;;;;;;3.4;1.6;;;;;;;;;;;;;-75
2022/11/22 13:40:50;;;;;;;;;;;;;;;5.93;96.77832;99260.48;;;;-76
2022/11/22 13:45:54;;;;;;;;;;;;;;;5.94;96.81445;99260.16;;;;-74
2022/11/22 13:51:03;;;;;;;;;;;;;;;5.98;96.91016;99258.95;;;;-75
2022/11/22 13:55:50;;;;;;;;;;;;;;;6.01;97.2666;99265.03;;;;-75
2022/11/22 14:00:50;;;;;;;;;;;;;;;6.02;96.56934;99274.98;;;;-75
2022/11/22 14:05:50;;;;;;;;;;;;;;;6.04;96.90234;99278.22;;;;-75
2022/11/22 14:06:56;;;;;;;3.6;1.7;;;;;;;;;;;;;-74
2022/11/22 14:11:00;;;;;;;;;;;;;;;6.07;96.73438;99272.57;;;;-75
2022/11/22 14:16:03;;;;;;;;;;;;;;;6.07;96.58203;99270.94;;;;-75
2022/11/22 14:20:59;;;;;;;;;;;;;;;6.1;97.29395;99270.03;;;;-76
2022/11/22 14:26:01;;;;;;;;;;;;;;;6.07;96.49512;99267.33;;;;-76
2022/11/22 14:30:52;;;;;;;;;;;;;;;6.05;96.34668;99266.06;;;;-76
2022/11/22 14:36:01;;;;;;;;;;;;;;;6.07;96.625;99257.47;;;;-76
2022/11/22 14:37:07;;;;;;;5.4;1.6;;;;;;;;;;;;;-76
2022/11/22 14:40:50;;;;;;;;;;;;;;;6.05;96.47949;99252.76;;;;-76
2022/11/22 14:45:51;;;;;;;;;;;;;;;6.06;96.95898;99265.08;;;;-76
2022/11/22 14:50:51;;;;;;;;;;;;;;;6.05;96.48828;99263.41;;;;-76
2022/11/22 14:55:51;;;;;;;;;;;;;;;6.05;96.65234;99261.45;;;;-75
2022/11/22 15:00:58;;;;;;;;;;;;;;;6.05;96.81543;99263.6;;;;-75
2022/11/22 15:06:04;;;;;;;;;;;;;;;6.04;96.60645;99271.18;;;;-75
2022/11/22 15:07:00;;;;;;;5.5;1.7;;;;;;;;;;;;;-75
2022/11/22 15:11:01;;;;;;;;;;;;;;;6.04;96.56445;99273.05;;;;-75
2022/11/22 15:15:50;;;;;;;;;;;;;;;6.03;96.60645;99265.52;;;;-75
2022/11/22 15:20:50;;;;;;;;;;;;;;;6.03;96.82422;99264.36;;;;-76
2022/11/22 15:25:50;;;;;;;;;;;;;;;6.04;96.94434;99269.51;;;;-76
2022/11/22 15:30:50;;;;;;;;;;;;;;;6.04;96.83496;99265.28;;;;-76
2022/11/22 15:35:55;;;;;;;;;;;;;;;6.02;96.83105;99262.54;;;;-76
2022/11/22 15:37:01;;;;;;;4.3;1.5;;;;;;;;;;;;;-76
2022/11/22 15:40:50;;;;;;;;;;;;;;;6.02;96.90723;99271.45;;;;-75
2022/11/22 15:45:51;;;;;;;;;;;;;;;6.01;97.1543;99270.93;;;;-75
2022/11/22 15:51:01;;;;;;;;;;;;;;;6;97.48047;99277.88;;;;-76
2022/11/22 15:55:56;;;;;;;;;;;;;;;6;97.43457;99288.66;;;;-75
2022/11/22 16:00:50;;;;;;;;;;;;;;;5.99;97.2373;99292.4;;;;-76
2022/11/22 16:05:50;;;;;;;;;;;;;;;5.99;97.36719;99288.96;;;;-75
2022/11/22 16:06:56;;;;;;;3.2;1.5;;;;;;;;;;;;;-76
2022/11/22 16:10:51;;;;;;;;;;;;;;;5.97;97.47461;99293.03;;;;-74
2022/11/22 16:15:59;;;;;;;;;;;;;;;5.97;97.6709;99283.53;;;;-76
2022/11/22 16:21:00;;;;;;;;;;;;;;;5.97;97.74707;99282.38;;;;-74
2022/11/22 16:25:51;;;;;;;;;;;;;;;5.96;97.83203;99290.45;;;;-75
2022/11/22 16:30:50;;;;;;;;;;;;;;;5.97;97.88867;99292.93;;;;-75
2022/11/22 16:35:49;;;;;;;;;;;;;;;5.96;97.98438;99290.97;;;;-75
2022/11/22 16:36:55;;;;;;;3.9;1.8;;;;;;;;;;;;;-75
2022/11/22 16:40:50;;;;;;;;;;;;;;;5.97;98.08398;99293.52;;;;-75
2022/11/22 16:45:49;;;;;;;;;;;;;;;5.98;98.09473;99295.72;;;;-76
2022/11/22 16:50:53;;;;;;;;;;;;;;;5.99;98.2168;99301.58;;;;-75
2022/11/22 16:55:49;;;;;;;;;;;;;;;5.98;98.31543;99301.15;;;;-75
2022/11/22 17:00:52;;;;;;;;;;;;;;;5.98;98.43262;99304.63;;;;-76
2022/11/22 17:05:49;;;;;;;;;;;;;;;5.99;98.48926;99305.17;;;;-76
2022/11/22 17:06:56;;;;;;;4;1.8;;;;;;;;;;;;;-76
2022/11/22 17:10:51;;;;;;;;;;;;;;;6;98.88281;99308.38;;;;-75
2022/11/22 17:15:49;;;;;;;;;;;;;;;6;98.97266;99310.22;;;;-75
2022/11/22 17:20:50;;;;;;;;;;;;;;;6.01;99.07031;99308.45;;;;-75
2022/11/22 17:25:50;;;;;;;;;;;;;;;6;99.13379;99313.06;;;;-75
2022/11/22 17:30:50;;;;;;;;;;;;;;;6.01;99.33203;99313.85;;;;-76
2022/11/22 17:35:50;;;;;;;;;;;;;;;6.01;99.28809;99315.48;;;;-76
2022/11/22 17:36:56;;;;;;;4.1;2.4;;;;;;;;;;;;;-76
2022/11/22 17:40:50;;;;;;;;;;;;;;;6.02;99.54297;99316.89;;;;-76
2022/11/22 17:45:50;;;;;;;;;;;;;;;6.02;99.37891;99319.22;;;;-76
2022/11/22 17:50:49;;;;;;;;;;;;;;;6.02;99.58594;99319.22;;;;-75
2022/11/22 17:55:50;;;;;;;;;;;;;;;6.03;99.71875;99318.56;;;;-76
2022/11/22 18:00:49;;;;;;;;;;;;;;;6.04;99.90625;99318;;;;-76
2022/11/22 18:05:49;;;;;;;;;;;;;;;6.05;99.85352;99314.03;;;;-76
2022/11/22 18:06:56;;;;;;;6;3.3;;;;;;;;;;;;;-75
2022/11/22 18:10:49;;;;;;;;;;;;;;;6.05;100;99317.41;;;;-75
2022/11/22 18:15:52;;;;;;;;;;;;;;;6.05;100;99323.2;;;;-76
2022/11/22 18:20:53;;;;;;;;;;;;;;;6.06;99.94238;99332.08;;;;-76
2022/11/22 18:25:50;;;;;;;;;;;;;;;6.07;100;99328.83;;;;-77
2022/11/22 18:30:49;;;;;;;;;;;;;;;6.1;100;99327.7;;;;-76
2022/11/22 18:35:49;;;;;;;;;;;;;;;6.1;100;99326.36;;;;-76
2022/11/22 18:36:56;;;;;;;9.4;4.1;;;;;;;;;;;;;-77
2022/11/22 18:40:51;;;;;;;;;;;;;;;6.11;100;99333.37;;;;-76
2022/11/22 18:45:50;;;;;;;;;;;;;;;6.12;100;99335.3;;;;-76
2022/11/22 18:50:49;;;;;;;;;;;;;;;6.14;100;99336.89;;;;-75
2022/11/22 18:55:49;;;;;;;;;;;;;;;6.15;100;99341.61;;;;-76
2022/11/22 19:00:52;;;;;;;;;;;;;;;6.16;100;99342.55;;;;-75
2022/11/22 19:05:50;;;;;;;;;;;;;;;6.16;99.82422;99347.77;;;;-76
2022/11/22 19:06:56;;;;;;;7.7;4.3;;;;;;;;;;;;;-76
2022/11/22 19:10:57;;;;;;;;;;;;;;;6.19;100;99345.72;;;;-76
2022/11/22 19:15:49;;;;;;;;;;;;;;;6.22;100;99348.78;;;;-75
2022/11/22 19:20:49;;;;;;;;;;;;;;;6.26;100;99350.17;;;;-75
2022/11/22 19:25:49;;;;;;;;;;;;;;;6.29;99.85352;99348.63;;;;-75
2022/11/22 19:30:49;;;;;;;;;;;;;;;6.29;99.89941;99349.11;;;;-75
2022/11/22 19:35:57;;;;;;;;;;;;;;;6.32;100;99346.25;;;;-75
2022/11/22 19:36:56;;;;;;;8;3.7;;;;;;;;;;;;;-75
2022/11/22 19:40:49;;;;;;;;;;;;;;;6.35;100;99348.8;;;;-75
2022/11/22 19:45:50;;;;;;;;;;;;;;;6.35;99.98828;99354.46;;;;-76
2022/11/22 19:50:49;;;;;;;;;;;;;;;6.37;99.89648;99360.06;;;;-76
2022/11/22 19:55:49;;;;;;;;;;;;;;;6.38;99.87695;99364.31;;;;-76
2022/11/22 20:00:50;;;;;;;;;;;;;;;6.39;99.74609;99363.46;;;;-76
2022/11/22 20:05:50;;;;;;;;;;;;;;;6.41;99.81738;99372.07;;;;-76
2022/11/22 20:06:58;;;;;;;8.3;3.7;;;;;;;;;;;;;-76
2022/11/22 20:10:49;;;;;;;;;;;;;;;6.42;99.86328;99374.16;;;;-75
2022/11/22 20:15:49;;;;;;;;;;;;;;;6.42;99.55762;99371.02;;;;-75
2022/11/22 20:20:49;;;;;;;;;;;;;;;6.44;99.72754;99378.97;;;;-76
2022/11/22 20:25:50;;;;;;;;;;;;;;;6.45;99.65137;99381.69;;;;-75
2022/11/22 20:30:50;;;;;;;;;;;;;;;6.47;99.74512;99377.55;;;;-76
2022/11/22 20:35:49;;;;;;;;;;;;;;;6.48;100;99382;;;;-76
2022/11/22 20:36:57;;;;;;;7.5;3.8;;;;;;;;;;;;;-75
2022/11/22 20:40:49;;;;;;;;;;;;;;;6.48;99.94336;99382.42;;;;-77
2022/11/22 20:45:49;;;;;;;;;;;;;;;6.53;100;99383.55;;;;-76
2022/11/22 20:50:52;;;;;;;;;;;;;;;6.54;100;99386.76;;;;-76
2022/11/22 20:55:50;;;;;;;;;;;;;;;6.56;100;99391.56;;;;-75
2022/11/22 21:00:49;;;;;;;;;;;;;;;6.57;100;99391.77;;;;-76
2022/11/22 21:05:53;;;;;;;;;;;;;;;6.59;100;99390.11;;;;-76
2022/11/22 21:07:04;;;;;;;10.3;4.6;;;;;;;;;;;;;-76
2022/11/22 21:10:50;;;;;;;;;;;;;;;6.59;100;99388.38;;;;-76
2022/11/22 21:15:49;;;;;;;;;;;;;;;6.62;100;99397.57;;;;-76
2022/11/22 21:20:49;;;;;;;;;;;;;;;6.63;100;99398.48;;;;-78
2022/11/22 21:25:50;;;;;;;;;;;;;;;6.64;100;99405.95;;;;-75
2022/11/22 21:30:54;;;;;;;;;;;;;;;6.65;100;99411.92;;;;-76
2022/11/22 21:35:50;;;;;;;;;;;;;;;6.66;100;99409.63;;;;-76
2022/11/22 21:36:57;;;;;;;11.8;4.8;;;;;;;;;;;;;-76
2022/11/22 21:40:56;;;;;;;;;;;;;;;6.64;100;99416.71;;;;-75
2022/11/22 21:45:50;;;;;;;;;;;;;;;6.64;100;99422.22;;;;-76
2022/11/22 21:50:50;;;;;;;;;;;;;;;6.66;100;99431.27;;;;-75
2022/11/22 21:55:54;;;;;;;;;;;;;;;6.66;100;99431.13;;;;-76
2022/11/22 22:00:50;;;;;;;;;;;;;;;6.65;100;99433.3;;;;-76
2022/11/22 22:05:54;;;;;;;;;;;;;;;6.65;100;99438.72;;;;-76
2022/11/22 22:06:57;;;;;;;9.9;4.8;;;;;;;;;;;;;-76
2022/11/22 22:10:50;;;;;;;;;;;;;;;6.67;100;99440.51;;;;-76
2022/11/22 22:15:51;;;;;;;;;;;;;;;6.69;100;99446.77;;;;-75
2022/11/22 22:20:49;;;;;;;;;;;;;;;6.71;100;99448.3;;;;-76
2022/11/22 22:25:50;;;;;;;;;;;;;;;6.74;100;99450.84;;;;-76
2022/11/22 22:30:50;;;;;;;;;;;;;;;6.75;100;99453.36;;;;-76
2022/11/22 22:35:49;;;;;;;;;;;;;;;6.77;100;99453.38;;;;-76
2022/11/22 22:36:57;;;;;;;13.2;5.6;;;;;;;;;;;;;-76
2022/11/22 22:40:54;;;;;;;;;;;;;;;6.75;100;99446.11;;;;-75
2022/11/22 22:45:50;;;;;;;;;;;;;;;6.8;100;99445.66;;;;-76
2022/11/22 22:50:50;;;;;;;;;;;;;;;6.8;100;99440.25;;;;-75
2022/11/22 22:55:55;;;;;;;;;;;;;;;6.81;100;99445.39;;;;-75
2022/11/22 23:00:50;;;;;;;;;;;;;;;6.79;100;99450.09;;;;-76
2022/11/22 23:05:49;;;;;;;;;;;;;;;6.79;100;99458.23;;;;-76
2022/11/22 23:06:57;;;;;;;15.5;5.7;;;;;;;;;;;;;-76
2022/11/22 23:10:49;;;;;;;;;;;;;;;6.76;100;99454.6;;;;-76
2022/11/22 23:15:49;;;;;;;;;;;;;;;6.78;100;99461.16;;;;-75
2022/11/22 23:20:49;;;;;;;;;;;;;;;6.8;100;99474.46;;;;-76
2022/11/22 23:25:49;;;;;;;;;;;;;;;6.8;100;99473.64;;;;-76
2022/11/22 23:30:50;;;;;;;;;;;;;;;6.77;100;99479.92;;;;-75
2022/11/22 23:35:49;;;;;;;;;;;;;;;6.77;100;99482.25;;;;-76
2022/11/22 23:36:59;;;;;;;13.4;6.1;;;;;;;;;;;;;-76
2022/11/22 23:40:54;;;;;;;;;;;;;;;6.78;100;99487.36;;;;-76
2022/11/22 23:45:51;;;;;;;;;;;;;;;6.77;100;99493.2;;;;-75
2022/11/22 23:50:50;;;;;;;;;;;;;;;6.77;100;99491.8;;;;-75
2022/11/22 23:55:49;;;;;;;;;;;;;;;6.77;100;99497.02;;;;-76
